Estación de Rauco

Ultimos registro cada 15 minutos 20
Estación Fecha / Hora Temperatura Humedad Lluvia Velocidad Dirección Radiación Presion
20 Rauco 05-05-2026 04:45 9,1 92 0 0 175 0 1015,5
19 Rauco 05-05-2026 04:30 9,1 92 0 0 175 0 1014,9
18 Rauco 05-05-2026 04:15 8,9 92 0 0 175 0 1015,1
17 Rauco 05-05-2026 04:00 8,7 92 0 0 175 0 1014,4
16 Rauco 05-05-2026 03:45 8,7 92 0 0 175 0 1014,1
15 Rauco 05-05-2026 03:30 8,6 92 0 0 175 0 1014,4
14 Rauco 05-05-2026 03:15 8,4 92 0 0 175 0 1014,8
13 Rauco 05-05-2026 03:00 8,4 91 0 0 175 0 1014,7
12 Rauco 05-05-2026 02:45 8,6 91 0 0 175 0 1014,8
11 Rauco 05-05-2026 02:30 8,7 91 0 0 175 0 1015
10 Rauco 05-05-2026 02:15 8,8 92 0 0 175 0 1015,3
9 Rauco 05-05-2026 02:00 8,4 92 0 0 175 0 1015,3
8 Rauco 05-05-2026 01:45 8,4 92 0 0 175 0 1015,4
7 Rauco 05-05-2026 01:30 8,2 92 0 0 175 0 1015,4
6 Rauco 05-05-2026 01:15 7,9 91 0 0 175 0 1015,3
5 Rauco 05-05-2026 01:00 7,8 91 0 0 175 0 1015,5
4 Rauco 05-05-2026 00:45 7,8 88 0 0 175 0 1015,6
3 Rauco 05-05-2026 00:30 8,3 89 0 0 175 0 1015,7
2 Rauco 05-05-2026 00:15 8,6 90 0 0 175 0 1015,6
1 Rauco 05-05-2026 00:00 8,7 90 0 0 175 0 1015,6